createdAt,value
2019-04-03T00:00:53.795Z,13.29
2019-04-03T00:03:21.366Z,13.34
2019-04-03T00:05:48.747Z,13.28
2019-04-03T00:08:16.049Z,13.31
2019-04-03T00:10:43.419Z,13.30
2019-04-03T00:13:11.417Z,13.33
2019-04-03T00:15:38.228Z,13.38
2019-04-03T00:18:05.666Z,13.45
2019-04-03T00:20:33.051Z,13.37
2019-04-03T00:23:00.458Z,13.37
2019-04-03T00:25:27.882Z,13.44
2019-04-03T00:27:55.378Z,13.46
2019-04-03T00:30:22.908Z,13.53
2019-04-03T00:32:50.148Z,13.44
2019-04-03T00:35:17.604Z,13.39
2019-04-03T00:37:45.088Z,13.37
2019-04-03T00:40:12.476Z,13.36
2019-04-03T00:42:39.448Z,13.34
2019-04-03T00:45:06.379Z,13.40
2019-04-03T00:47:33.796Z,13.40
2019-04-03T00:50:01.202Z,13.32
2019-04-03T00:52:28.681Z,13.30
2019-04-03T00:54:56.580Z,13.35
2019-04-03T00:57:22.528Z,13.34
2019-04-03T00:59:49.496Z,13.28
2019-04-03T01:02:16.824Z,13.34
2019-04-03T01:04:43.465Z,13.30
2019-04-03T01:07:10.536Z,13.31
2019-04-03T01:09:37.478Z,13.25
2019-04-03T01:12:04.419Z,13.22
2019-04-03T01:14:32.122Z,13.22
2019-04-03T01:16:59.295Z,13.18
2019-04-03T01:19:26.709Z,13.19
2019-04-03T01:21:54.107Z,13.16
2019-04-03T01:24:21.501Z,13.15
2019-04-03T01:26:48.954Z,13.13
2019-04-03T01:29:16.343Z,13.10
2019-04-03T01:31:44.910Z,13.11
2019-04-03T01:34:11.189Z,13.02
2019-04-03T01:36:38.620Z,12.99
2019-04-03T01:39:06.042Z,12.94
2019-04-03T01:41:33.446Z,12.91
2019-04-03T01:44:00.981Z,12.86
2019-04-03T01:46:28.301Z,12.90
2019-04-03T01:48:56.760Z,12.95
2019-04-03T01:51:23.126Z,12.98
2019-04-03T01:53:50.555Z,12.98
2019-04-03T01:56:17.962Z,12.87
2019-04-03T01:58:45.373Z,12.82
2019-04-03T02:01:12.817Z,12.82
2019-04-03T02:03:41.722Z,12.82
2019-04-03T02:06:07.629Z,12.82
2019-04-03T02:08:35.015Z,12.78
2019-04-03T02:11:02.444Z,12.74
2019-04-03T02:13:29.849Z,12.60
2019-04-03T02:15:57.307Z,12.46
2019-04-03T02:18:25.514Z,12.40
2019-04-03T02:20:52.183Z,12.42
2019-04-03T02:23:19.745Z,12.20
2019-04-03T02:25:47.181Z,12.10
2019-04-03T02:28:15.242Z,12.08
2019-04-03T02:30:45.330Z,12.07
2019-04-03T02:33:10.119Z,11.89
2019-04-03T02:35:40.347Z,11.74
2019-04-03T02:38:04.891Z,11.68
2019-04-03T02:40:33.151Z,11.64
2019-04-03T02:42:59.726Z,11.62
2019-04-03T02:45:27.153Z,11.58
2019-04-03T02:47:54.555Z,11.47
2019-04-03T02:50:22.747Z,11.35
2019-04-03T02:52:50.139Z,11.22
2019-04-03T02:55:17.721Z,11.17
2019-04-03T02:57:48.463Z,11.25
2019-04-03T03:00:12.667Z,11.32
2019-04-03T03:02:39.850Z,11.38
2019-04-03T03:05:07.230Z,11.47
2019-04-03T03:07:36.323Z,11.47
2019-04-03T03:10:02.052Z,11.43
2019-04-03T03:12:29.479Z,11.50
2019-04-03T03:14:57.106Z,11.43
2019-04-03T03:17:24.297Z,11.44
2019-04-03T03:19:51.875Z,11.35
2019-04-03T03:22:19.289Z,11.36
2019-04-03T03:24:46.706Z,11.34
2019-04-03T03:27:14.113Z,11.34
2019-04-03T03:29:41.563Z,11.25
2019-04-03T03:32:17.662Z,11.41
2019-04-03T03:34:51.570Z,11.42
2019-04-03T03:37:04.044Z,11.40
2019-04-03T03:39:31.214Z,11.50
2019-04-03T03:41:59.176Z,11.50
2019-04-03T03:44:26.023Z,11.45
2019-04-03T03:46:53.436Z,11.64
2019-04-03T03:49:21.096Z,11.70
2019-04-03T03:51:48.277Z,11.61
2019-04-03T03:54:18.369Z,11.48
2019-04-03T03:56:43.095Z,11.47
2019-04-03T03:59:10.491Z,11.50
2019-04-03T04:01:37.921Z,11.51
2019-04-03T04:04:05.759Z,11.52
2019-04-03T04:06:35.667Z,11.49
2019-04-03T04:09:00.437Z,11.60
2019-04-03T04:11:28.102Z,11.52
2019-04-03T04:13:55.259Z,11.45
2019-04-03T04:16:22.683Z,11.46
2019-04-03T04:18:50.265Z,11.49
2019-04-03T04:21:17.722Z,11.56
2019-04-03T04:23:44.983Z,11.49
2019-04-03T04:26:13.535Z,11.51
2019-04-03T04:28:41.078Z,11.53
2019-04-03T04:31:08.594Z,11.58
2019-04-03T04:33:35.836Z,11.61
2019-04-03T04:36:03.231Z,11.62
2019-04-03T04:38:31.441Z,11.60
2019-04-03T04:41:01.289Z,11.50
2019-04-03T04:43:26.469Z,11.64
2019-04-03T04:45:53.822Z,11.73
2019-04-03T04:48:21.426Z,11.81
2019-04-03T04:50:48.652Z,11.67
2019-04-03T04:53:16.085Z,11.46
2019-04-03T04:55:43.547Z,11.30
2019-04-03T04:58:11.739Z,11.50
2019-04-03T05:00:38.489Z,11.58
2019-04-03T05:03:05.920Z,11.62
2019-04-03T05:05:33.730Z,11.57
2019-04-03T05:08:01.951Z,11.46
2019-04-03T05:10:28.610Z,11.38
2019-04-03T05:12:56.083Z,11.32
2019-04-03T05:15:24.095Z,11.26
2019-04-03T05:17:51.035Z,11.33
2019-04-03T05:20:20.204Z,11.32
2019-04-03T05:22:46.982Z,11.45
2019-04-03T05:25:14.351Z,11.62
2019-04-03T05:27:41.756Z,11.66
2019-04-03T05:30:09.211Z,11.62
2019-04-03T05:32:36.623Z,11.57
2019-04-03T05:35:04.030Z,11.66
2019-04-03T05:37:31.541Z,11.68
2019-04-03T05:39:58.993Z,11.67
2019-04-03T05:42:28.427Z,11.71
2019-04-03T05:44:53.896Z,11.78
2019-04-03T05:47:21.283Z,11.87
2019-04-03T05:49:50.692Z,11.86
2019-04-03T05:52:16.094Z,11.86
2019-04-03T05:54:44.593Z,11.84
2019-04-03T05:57:13.363Z,11.79
2019-04-03T05:59:38.592Z,11.84
2019-04-03T06:02:14.969Z,11.81
2019-04-03T06:04:33.667Z,11.81
2019-04-03T06:07:01.036Z,11.92
2019-04-03T06:09:28.419Z,11.98
2019-04-03T06:11:55.971Z,11.92
2019-04-03T06:14:23.917Z,11.90
2019-04-03T06:16:50.850Z,11.87
2019-04-03T06:19:18.304Z,11.82
2019-04-03T06:21:46.515Z,11.83
2019-04-03T06:24:13.161Z,11.81
2019-04-03T06:26:40.773Z,11.82
2019-04-03T06:29:08.238Z,11.91
2019-04-03T06:31:35.453Z,12.03
2019-04-03T06:34:02.838Z,12.13
2019-04-03T06:36:30.400Z,12.22
2019-04-03T06:38:58.292Z,12.37
2019-04-03T06:41:25.682Z,12.43
2019-04-03T06:43:54.608Z,12.38
2019-04-03T06:46:21.790Z,12.30
2019-04-03T06:48:49.367Z,12.27
2019-04-03T06:51:16.900Z,12.21
2019-04-03T06:53:44.061Z,12.20
2019-04-03T06:56:11.557Z,12.23
2019-04-03T06:58:40.157Z,12.29
2019-04-03T07:01:06.525Z,12.24
2019-04-03T07:03:34.408Z,12.20
2019-04-03T07:06:01.526Z,12.31
2019-04-03T07:08:34.610Z,12.28
2019-04-03T07:10:56.363Z,12.15
2019-04-03T07:13:23.763Z,12.10
2019-04-03T07:15:51.183Z,12.24
2019-04-03T07:18:18.599Z,12.24
2019-04-03T07:20:46.286Z,12.37
2019-04-03T07:23:13.768Z,12.41
2019-04-03T07:25:41.112Z,12.49
2019-04-03T07:28:09.431Z,12.74
2019-04-03T07:30:35.935Z,12.73
2019-04-03T07:33:05.311Z,12.82
2019-04-03T07:35:30.793Z,12.97
2019-04-03T07:37:59.056Z,13.13
2019-04-03T07:40:27.597Z,13.32
2019-04-03T07:42:56.293Z,13.53
2019-04-03T07:45:21.898Z,13.74
2019-04-03T07:47:48.895Z,13.88
2019-04-03T07:50:15.817Z,13.99
2019-04-03T07:52:43.355Z,14.03
2019-04-03T07:55:10.769Z,14.03
2019-04-03T07:57:40.415Z,14.05
2019-04-03T08:00:07.109Z,14.24
2019-04-03T08:02:34.456Z,14.42
2019-04-03T08:05:01.375Z,14.46
2019-04-03T08:07:28.712Z,14.32
2019-04-03T08:09:57.705Z,14.15
2019-04-03T08:12:23.583Z,14.33
2019-04-03T08:14:51.128Z,14.50
2019-04-03T08:17:19.382Z,14.68
2019-04-03T08:19:46.079Z,14.46
2019-04-03T08:22:13.621Z,14.45
2019-04-03T08:24:41.108Z,14.22
2019-04-03T08:27:08.790Z,14.46
2019-04-03T08:29:38.214Z,14.90
2019-04-03T08:32:03.888Z,14.91
2019-04-03T08:34:32.194Z,14.84
2019-04-03T08:37:01.391Z,14.73
2019-04-03T08:39:26.269Z,14.83
2019-04-03T08:41:55.887Z,14.96
2019-04-03T08:44:21.347Z,14.85
2019-04-03T08:46:48.698Z,14.85
2019-04-03T08:49:16.248Z,14.87
2019-04-03T08:51:44.727Z,15.24
2019-04-03T08:54:12.154Z,15.43
2019-04-03T08:56:39.894Z,15.84
2019-04-03T08:59:07.039Z,16.09
2019-04-03T09:01:36.619Z,16.09
2019-04-03T09:04:01.678Z,16.21
2019-04-03T09:06:29.375Z,16.05
2019-04-03T09:08:58.186Z,15.94
2019-04-03T09:11:24.124Z,15.51
2019-04-03T09:13:52.748Z,15.49
2019-04-03T09:16:19.168Z,15.16
2019-04-03T09:18:46.606Z,15.16
2019-04-03T09:21:15.203Z,15.29
2019-04-03T09:23:41.510Z,15.01
2019-04-03T09:26:08.943Z,15.00
2019-04-03T09:28:36.381Z,15.05
2019-04-03T09:31:03.810Z,14.73
2019-04-03T09:33:31.269Z,14.48
2019-04-03T09:35:59.854Z,14.32
2019-04-03T09:38:26.406Z,13.94
2019-04-03T09:40:53.872Z,13.67
2019-04-03T09:43:22.279Z,13.63
2019-04-03T09:45:48.603Z,13.55
2019-04-03T09:48:16.428Z,13.59
2019-04-03T09:50:45.367Z,13.83
2019-04-03T09:53:11.519Z,13.66
2019-04-03T09:55:38.764Z,13.24
2019-04-03T09:58:06.139Z,12.88
2019-04-03T10:00:33.690Z,13.05
2019-04-03T10:03:01.137Z,13.20
2019-04-03T10:05:29.029Z,13.37
2019-04-03T10:07:56.140Z,13.55
2019-04-03T10:10:25.674Z,13.72
2019-04-03T10:12:53.631Z,13.55
2019-04-03T10:15:19.118Z,13.40
2019-04-03T10:17:46.467Z,13.15
2019-04-03T10:20:16.486Z,13.04
2019-04-03T10:22:42.922Z,12.79
2019-04-03T10:25:10.437Z,12.60
2019-04-03T10:27:37.892Z,12.26
2019-04-03T10:30:06.345Z,12.09
2019-04-03T10:32:33.752Z,11.99
2019-04-03T10:35:01.166Z,11.84
2019-04-03T10:37:28.760Z,11.51
2019-04-03T10:39:56.254Z,11.40
2019-04-03T10:42:23.726Z,11.39
2019-04-03T10:44:51.310Z,11.37
2019-04-03T10:47:20.936Z,11.21
2019-04-03T10:49:46.660Z,11.09
2019-04-03T10:52:14.453Z,11.02
2019-04-03T10:54:41.643Z,11.00
2019-04-03T10:57:09.706Z,10.94
2019-04-03T10:59:37.097Z,10.87
2019-04-03T11:02:04.531Z,10.72
2019-04-03T11:04:32.265Z,10.72
2019-04-03T11:07:00.101Z,10.57
2019-04-03T11:09:27.280Z,10.58
2019-04-03T11:11:54.723Z,10.36
2019-04-03T11:14:22.887Z,10.10
2019-04-03T11:16:50.495Z,10.10
2019-04-03T11:19:19.651Z,10.09
2019-04-03T11:21:45.571Z,9.87
2019-04-03T11:24:12.879Z,9.68
2019-04-03T11:26:40.374Z,9.54
2019-04-03T11:29:10.004Z,9.51
2019-04-03T11:31:41.201Z,9.38
2019-04-03T11:34:02.743Z,9.19
2019-04-03T11:36:30.808Z,9.10
2019-04-03T11:39:08.927Z,9.05
2019-04-03T11:41:25.074Z,8.99
2019-04-03T11:43:52.515Z,9.02
2019-04-03T11:46:19.930Z,9.04
2019-04-03T11:48:48.686Z,8.91
2019-04-03T11:51:15.463Z,8.75
2019-04-03T11:53:45.221Z,8.67
2019-04-03T11:56:12.378Z,8.64
2019-04-03T11:58:37.860Z,8.67
2019-04-03T12:01:05.403Z,8.71
2019-04-03T12:03:32.681Z,8.64
2019-04-03T12:06:00.253Z,8.54
2019-04-03T12:08:28.897Z,8.38
2019-04-03T12:10:55.086Z,8.26
2019-04-03T12:13:22.839Z,8.22
2019-04-03T12:15:52.100Z,8.10
2019-04-03T12:18:17.336Z,8.05
2019-04-03T12:20:45.599Z,8.03
2019-04-03T12:23:12.134Z,7.91
2019-04-03T12:25:40.648Z,7.87
2019-04-03T12:28:07.665Z,7.73
2019-04-03T12:30:35.086Z,7.67
2019-04-03T12:33:02.502Z,7.69
2019-04-03T12:35:29.959Z,7.61
2019-04-03T12:37:57.407Z,7.43
2019-04-03T12:40:24.804Z,7.48
2019-04-03T12:42:52.254Z,7.35
2019-04-03T12:45:19.657Z,7.24
2019-04-03T12:47:47.051Z,7.17
2019-04-03T12:50:14.562Z,7.16
2019-04-03T12:52:44.422Z,7.17
2019-04-03T12:55:09.700Z,6.95
2019-04-03T12:57:39.223Z,6.84
2019-04-03T13:00:07.409Z,6.77
2019-04-03T13:02:34.740Z,6.64
2019-04-03T13:05:05.041Z,6.71
2019-04-03T13:07:29.671Z,6.70
2019-04-03T13:09:57.080Z,6.69
2019-04-03T13:12:27.150Z,6.64
2019-04-03T13:14:51.953Z,6.55
2019-04-03T13:17:19.368Z,6.45
2019-04-03T13:19:46.832Z,6.45
2019-04-03T13:22:17.635Z,6.43
2019-04-03T13:24:42.199Z,6.24
2019-04-03T13:27:09.467Z,6.19
2019-04-03T13:29:39.200Z,6.23
2019-04-03T13:32:04.339Z,6.46
2019-04-03T13:34:32.610Z,6.62
2019-04-03T13:36:59.293Z,6.65
2019-04-03T13:39:26.734Z,6.84
2019-04-03T13:41:54.207Z,6.97
2019-04-03T13:44:21.634Z,7.07
2019-04-03T13:46:49.033Z,7.26
2019-04-03T13:49:18.061Z,7.12
2019-04-03T13:51:44.223Z,7.11
2019-04-03T13:54:11.543Z,7.03
2019-04-03T13:56:42.075Z,6.93
2019-04-03T13:59:06.377Z,6.85
2019-04-03T14:01:33.826Z,6.92
2019-04-03T14:04:01.571Z,6.90
2019-04-03T14:06:28.798Z,6.83
2019-04-03T14:08:56.437Z,6.85
2019-04-03T14:11:24.293Z,6.76
2019-04-03T14:13:51.614Z,6.79
2019-04-03T14:16:22.412Z,6.83
2019-04-03T14:18:46.235Z,6.85
2019-04-03T14:21:14.066Z,6.84
2019-04-03T14:23:41.224Z,6.84
2019-04-03T14:26:10.793Z,6.96
2019-04-03T14:28:35.985Z,7.12
2019-04-03T14:31:05.043Z,7.21
2019-04-03T14:33:41.760Z,7.22
2019-04-03T14:35:58.250Z,7.18
2019-04-03T14:38:27.729Z,7.22
2019-04-03T14:40:53.154Z,7.21
2019-04-03T14:43:22.100Z,7.22
2019-04-03T14:45:48.358Z,7.26
2019-04-03T14:48:15.440Z,7.39
2019-04-03T14:50:43.153Z,7.44
2019-04-03T14:53:10.611Z,7.47
2019-04-03T14:55:47.227Z,7.50
2019-04-03T14:58:06.033Z,7.55
2019-04-03T15:00:33.434Z,7.57
2019-04-03T15:03:00.814Z,7.57
2019-04-03T15:05:28.662Z,7.55
2019-04-03T15:07:56.058Z,7.62
2019-04-03T15:10:23.199Z,7.59
2019-04-03T15:12:50.974Z,7.41
2019-04-03T15:15:18.179Z,7.14
2019-04-03T15:17:45.642Z,6.96
2019-04-03T15:20:13.295Z,6.94
2019-04-03T15:22:41.781Z,6.98
2019-04-03T15:25:09.614Z,7.09
2019-04-03T15:27:37.069Z,7.02
2019-04-03T15:30:04.139Z,6.88
2019-04-03T15:32:32.001Z,6.60
2019-04-03T15:34:59.742Z,6.27
2019-04-03T15:37:26.507Z,6.00
2019-04-03T15:39:57.565Z,6.02
2019-04-03T15:42:21.988Z,6.18
2019-04-03T15:44:51.179Z,6.14
2019-04-03T15:47:18.879Z,6.24
2019-04-03T15:49:44.409Z,6.10
2019-04-03T15:52:12.219Z,6.06
2019-04-03T15:54:39.709Z,6.01
2019-04-03T15:57:06.774Z,6.05
2019-04-03T15:59:34.242Z,6.13
2019-04-03T16:02:02.006Z,6.10
2019-04-03T16:04:29.087Z,5.93
2019-04-03T16:06:56.606Z,6.00
2019-04-03T16:09:24.465Z,6.05
2019-04-03T16:11:51.953Z,6.00
2019-04-03T16:14:20.433Z,5.90
2019-04-03T16:16:46.387Z,5.92
2019-04-03T16:19:13.989Z,5.78
2019-04-03T16:21:41.456Z,5.76
2019-04-03T16:24:12.012Z,5.83
2019-04-03T16:26:36.252Z,5.79
2019-04-03T16:29:04.089Z,5.66
2019-04-03T16:31:31.547Z,5.55
2019-04-03T16:33:58.462Z,5.47
2019-04-03T16:36:25.963Z,5.43
2019-04-03T16:38:53.867Z,5.34
2019-04-03T16:41:21.215Z,5.46
2019-04-03T16:43:48.186Z,5.66
2019-04-03T16:46:15.702Z,5.86
2019-04-03T16:48:43.307Z,5.64
2019-04-03T16:51:10.539Z,5.36
2019-04-03T16:53:38.549Z,5.25
2019-04-03T16:56:06.452Z,5.25
2019-04-03T16:58:33.396Z,5.21
2019-04-03T17:01:00.540Z,5.20
2019-04-03T17:03:31.751Z,5.40
2019-04-03T17:05:55.356Z,5.53
2019-04-03T17:08:23.696Z,5.53
2019-04-03T17:10:50.212Z,5.66
2019-04-03T17:13:18.875Z,5.61
2019-04-03T17:15:45.356Z,5.56
2019-04-03T17:18:12.594Z,5.44
2019-04-03T17:20:40.369Z,5.35
2019-04-03T17:23:07.786Z,5.42
2019-04-03T17:25:45.867Z,5.56
2019-04-03T17:28:07.584Z,5.68
2019-04-03T17:30:29.821Z,5.82
2019-04-03T17:32:57.528Z,5.78
2019-04-03T17:35:24.705Z,5.80
2019-04-03T17:37:52.115Z,5.89
2019-04-03T17:40:20.033Z,5.77
2019-04-03T17:42:47.455Z,5.61
2019-04-03T17:45:16.330Z,5.67
2019-04-03T17:47:42.318Z,5.54
2019-04-03T17:50:09.815Z,5.46
2019-04-03T17:52:37.401Z,5.43
2019-04-03T17:55:05.617Z,5.44
2019-04-03T17:57:33.051Z,5.27
2019-04-03T18:00:00.450Z,5.24
2019-04-03T18:02:29.596Z,5.33
2019-04-03T18:04:55.315Z,5.49
2019-04-03T18:07:22.728Z,5.52
2019-04-03T18:09:50.120Z,5.52
2019-04-03T18:12:21.147Z,5.47
2019-04-03T18:14:44.958Z,5.49
2019-04-03T18:17:12.356Z,5.63
2019-04-03T18:19:41.521Z,5.67
2019-04-03T18:22:07.190Z,5.52
2019-04-03T18:24:34.635Z,5.39
2019-04-03T18:27:02.593Z,5.31
2019-04-03T18:29:29.552Z,5.30
2019-04-03T18:31:56.939Z,5.32
2019-04-03T18:34:24.335Z,5.34
2019-04-03T18:36:51.723Z,5.41
2019-04-03T18:39:19.107Z,5.34
2019-04-03T18:41:47.810Z,5.21
2019-04-03T18:44:21.979Z,5.28
2019-04-03T18:46:41.363Z,5.30
2019-04-03T18:49:08.837Z,5.34
2019-04-03T18:51:36.826Z,5.07
2019-04-03T18:54:03.643Z,5.07
2019-04-03T18:56:32.175Z,5.19
2019-04-03T18:58:58.604Z,5.19
2019-04-03T19:01:26.018Z,5.18
2019-04-03T19:03:53.496Z,4.99
2019-04-03T19:06:21.038Z,5.01
2019-04-03T19:08:50.140Z,5.11
2019-04-03T19:11:17.002Z,4.94
2019-04-03T19:13:45.160Z,4.74
2019-04-03T19:16:11.963Z,4.75
2019-04-03T19:18:39.356Z,4.83
2019-04-03T19:21:06.787Z,4.87
2019-04-03T19:23:34.543Z,4.73
2019-04-03T19:26:02.449Z,4.57
2019-04-03T19:28:29.986Z,4.70
2019-04-03T19:30:57.604Z,4.70
2019-04-03T19:33:25.213Z,4.50
2019-04-03T19:35:52.804Z,4.44
2019-04-03T19:38:20.455Z,4.59
2019-04-03T19:40:48.378Z,4.52
2019-04-03T19:43:15.804Z,4.51
2019-04-03T19:45:46.071Z,4.52
2019-04-03T19:48:14.324Z,4.53
2019-04-03T19:50:41.823Z,4.53
2019-04-03T19:53:09.285Z,4.63
2019-04-03T19:55:36.720Z,4.51
2019-04-03T19:58:04.137Z,4.48
2019-04-03T20:00:33.088Z,4.59
2019-04-03T20:02:59.081Z,4.55
2019-04-03T20:05:26.518Z,4.59
2019-04-03T20:07:53.920Z,4.56
2019-04-03T20:10:21.377Z,4.60
2019-04-03T20:12:48.841Z,4.65
2019-04-03T20:15:16.273Z,4.71
2019-04-03T20:17:43.672Z,4.67
2019-04-03T20:20:11.066Z,4.61
2019-04-03T20:22:42.101Z,4.60
2019-04-03T20:25:06.100Z,4.68
2019-04-03T20:27:33.727Z,4.58
2019-04-03T20:30:01.442Z,4.47
2019-04-03T20:32:28.546Z,4.40
2019-04-03T20:34:55.939Z,4.34
2019-04-03T20:37:25.748Z,4.32
2019-04-03T20:39:50.848Z,4.42
2019-04-03T20:42:18.277Z,4.45
2019-04-03T20:44:47.970Z,4.32
2019-04-03T20:47:13.111Z,4.20
2019-04-03T20:49:43.516Z,4.15
2019-04-03T20:52:12.110Z,4.17
2019-04-03T20:54:39.560Z,4.16
2019-04-03T20:57:07.097Z,4.25
2019-04-03T20:59:34.510Z,4.24
2019-04-03T21:02:01.932Z,4.33
2019-04-03T21:04:29.374Z,4.25
2019-04-03T21:06:56.837Z,4.23
2019-04-03T21:09:24.329Z,4.21
2019-04-03T21:11:51.770Z,4.26
2019-04-03T21:14:19.147Z,4.16
2019-04-03T21:16:48.065Z,4.10
2019-04-03T21:19:14.288Z,4.00
2019-04-03T21:21:41.669Z,4.02
2019-04-03T21:24:09.083Z,4.08
2019-04-03T21:26:38.309Z,4.12
2019-04-03T21:29:03.994Z,4.19
2019-04-03T21:31:31.398Z,4.34
2019-04-03T21:34:01.571Z,4.52
2019-04-03T21:36:26.244Z,4.58
2019-04-03T21:38:53.691Z,4.63
2019-04-03T21:41:21.370Z,4.69
2019-04-03T21:43:48.515Z,4.75
2019-04-03T21:46:15.939Z,4.79
2019-04-03T21:48:44.782Z,4.75
2019-04-03T21:51:10.783Z,4.66
2019-04-03T21:53:38.180Z,4.59
2019-04-03T21:56:05.604Z,4.73
2019-04-03T21:58:33.020Z,4.85
2019-04-03T22:01:14.494Z,4.88
2019-04-03T22:03:39.666Z,4.91
2019-04-03T22:06:07.065Z,4.69
2019-04-03T22:08:34.470Z,4.45
2019-04-03T22:11:03.860Z,4.43
2019-04-03T22:13:29.264Z,4.37
2019-04-03T22:15:56.773Z,4.29
2019-04-03T22:18:24.356Z,4.31
2019-04-03T22:20:51.595Z,4.30
2019-04-03T22:23:18.990Z,4.31
2019-04-03T22:25:47.173Z,4.37
2019-04-03T22:28:14.554Z,4.31
2019-04-03T22:30:42.063Z,4.29
2019-04-03T22:33:09.451Z,4.35
2019-04-03T22:35:36.884Z,4.41
2019-04-03T22:38:05.528Z,4.33
2019-04-03T22:40:31.691Z,4.31
2019-04-03T22:42:59.134Z,4.38
2019-04-03T22:45:26.574Z,4.33
2019-04-03T22:47:54.280Z,4.28
2019-04-03T22:50:21.371Z,4.39
2019-04-03T22:52:48.983Z,4.47
2019-04-03T22:55:16.384Z,4.46
2019-04-03T22:57:44.936Z,4.49
2019-04-03T23:00:12.335Z,4.54
2019-04-03T23:02:39.741Z,4.58
2019-04-03T23:05:07.270Z,4.62
2019-04-03T23:07:34.674Z,4.64
2019-04-03T23:10:02.082Z,4.66
2019-04-03T23:12:29.583Z,4.65
2019-04-03T23:14:56.999Z,4.67
2019-04-03T23:17:24.393Z,4.70
2019-04-03T23:19:52.176Z,4.66
2019-04-03T23:22:19.242Z,4.57
2019-04-03T23:24:46.691Z,4.39
2019-04-03T23:27:14.090Z,4.18
2019-04-03T23:29:41.493Z,3.97
2019-04-03T23:32:08.896Z,3.83
2019-04-03T23:34:36.321Z,3.89
2019-04-03T23:37:03.731Z,3.89
2019-04-03T23:39:31.127Z,3.85
2019-04-03T23:41:58.526Z,3.81
2019-04-03T23:44:25.938Z,3.77
2019-04-03T23:46:54.229Z,3.72
2019-04-03T23:49:22.121Z,3.77
2019-04-03T23:51:49.527Z,3.84
2019-04-03T23:54:16.949Z,3.88
2019-04-03T23:56:44.785Z,3.84
2019-04-03T23:59:13.003Z,3.88
